createdAt,value
2023-04-17T00:02:04.894Z,16.38
2023-04-17T00:04:33.143Z,17.08
2023-04-17T00:07:03.492Z,16.40
2023-04-17T00:09:31.319Z,15.40
2023-04-17T00:11:58.731Z,15.70
2023-04-17T00:14:26.055Z,15.75
2023-04-17T00:16:53.584Z,17.40
2023-04-17T00:19:21.123Z,16.55
2023-04-17T00:21:48.657Z,16.58
2023-04-17T00:24:15.961Z,16.50
2023-04-17T00:26:43.315Z,18.58
2023-04-17T00:29:10.935Z,17.60
2023-04-17T00:31:38.541Z,18.02
2023-04-17T00:34:06.037Z,17.90
2023-04-17T00:36:33.462Z,16.80
2023-04-17T00:39:00.727Z,18.08
2023-04-17T00:41:28.025Z,16.60
2023-04-17T00:43:55.317Z,17.40
2023-04-17T00:46:22.788Z,17.77
2023-04-17T00:48:50.857Z,17.73
2023-04-17T00:51:18.477Z,17.65
2023-04-17T00:53:46.594Z,19.10
2023-04-17T00:56:14.455Z,17.40
2023-04-17T00:58:41.832Z,18.33
2023-04-17T01:01:09.452Z,18.30
2023-04-17T01:03:36.969Z,18.75
2023-04-17T01:06:04.590Z,17.48
2023-04-17T01:08:41.874Z,17.90
2023-04-17T01:11:10.348Z,18.00
2023-04-17T01:13:47.713Z,18.05
2023-04-17T01:16:15.599Z,18.33
2023-04-17T01:18:43.447Z,19.90
2023-04-17T01:21:11.234Z,18.95
2023-04-17T01:23:52.133Z,18.58
2023-04-17T01:26:24.347Z,18.60
2023-04-17T01:28:59.676Z,17.50
2023-04-17T01:31:29.560Z,19.63
2023-04-17T01:33:57.056Z,19.73
2023-04-17T01:36:24.373Z,21.52
2023-04-17T01:38:51.700Z,20.58
2023-04-17T01:41:19.012Z,21.10
2023-04-17T01:43:47.579Z,20.85
2023-04-17T01:46:15.037Z,20.70
2023-04-17T01:48:42.396Z,20.50
2023-04-17T01:51:09.898Z,20.15
2023-04-17T01:53:39.204Z,21.48
2023-04-17T01:56:06.873Z,21.30
2023-04-17T01:58:34.176Z,25.65
2023-04-17T02:01:01.579Z,22.13
2023-04-17T02:03:29.069Z,24.10
2023-04-17T02:05:56.470Z,22.20
2023-04-17T02:08:24.330Z,23.50
2023-04-17T02:10:51.936Z,21.58
2023-04-17T02:13:19.285Z,22.80
2023-04-17T02:15:46.840Z,22.65
2023-04-17T02:18:14.285Z,23.25
2023-04-17T02:20:41.606Z,23.20
2023-04-17T02:23:08.963Z,24.33
2023-04-17T02:25:36.448Z,24.58
2023-04-17T02:28:04.262Z,23.20
2023-04-17T02:30:31.631Z,23.67
2023-04-17T02:32:59.255Z,22.23
2023-04-17T02:35:32.231Z,23.67
2023-04-17T02:37:59.553Z,25.48
2023-04-17T02:40:27.160Z,25.38
2023-04-17T02:42:54.522Z,29.02
2023-04-17T02:45:22.026Z,27.52
2023-04-17T02:47:49.478Z,24.35
2023-04-17T02:50:17.000Z,26.95
2023-04-17T02:52:44.333Z,27.95
2023-04-17T02:55:11.670Z,25.80
2023-04-17T02:57:39.035Z,28.23
2023-04-17T03:00:13.721Z,28.45
2023-04-17T03:02:41.485Z,28.25
2023-04-17T03:05:09.313Z,26.85
2023-04-17T03:07:36.679Z,26.65
2023-04-17T03:10:04.253Z,27.33
2023-04-17T03:12:31.538Z,27.67
2023-04-17T03:14:58.907Z,24.33
2023-04-17T03:17:26.275Z,27.20
2023-04-17T03:19:53.627Z,25.67
2023-04-17T03:22:20.938Z,24.35
2023-04-17T03:24:48.233Z,27.02
2023-04-17T03:27:15.705Z,27.02
2023-04-17T03:29:43.036Z,26.27
2023-04-17T03:32:10.399Z,23.83
2023-04-17T03:34:38.291Z,22.63
2023-04-17T03:37:05.598Z,24.55
2023-04-17T03:39:32.957Z,21.55
2023-04-17T03:42:00.222Z,20.25
2023-04-17T03:44:27.556Z,20.63
2023-04-17T03:46:54.897Z,19.33
2023-04-17T03:49:22.170Z,18.17
2023-04-17T03:51:49.445Z,18.38
2023-04-17T03:54:16.763Z,20.00
2023-04-17T03:56:44.030Z,17.88
2023-04-17T03:59:11.953Z,18.33
2023-04-17T04:01:39.481Z,18.27
2023-04-17T04:04:07.129Z,16.33
2023-04-17T04:06:34.574Z,17.27
2023-04-17T04:09:01.944Z,15.98
2023-04-17T04:11:29.290Z,15.07
2023-04-17T04:13:56.615Z,15.35
2023-04-17T04:16:24.111Z,14.70
2023-04-17T04:18:51.629Z,15.40
2023-04-17T04:21:18.870Z,13.00
2023-04-17T04:23:46.152Z,14.82
2023-04-17T04:26:13.751Z,15.25
2023-04-17T04:28:42.677Z,14.65
2023-04-17T04:31:10.233Z,15.40
2023-04-17T04:33:37.836Z,14.38
2023-04-17T04:36:05.339Z,14.30
2023-04-17T04:38:32.997Z,13.40
2023-04-17T04:41:06.460Z,16.02
2023-04-17T04:43:34.209Z,15.35
2023-04-17T04:46:01.769Z,15.95
2023-04-17T04:48:29.263Z,15.43
2023-04-17T04:50:56.596Z,16.75
2023-04-17T04:53:24.634Z,16.40
2023-04-17T04:55:52.079Z,16.90
2023-04-17T04:58:19.398Z,18.77
2023-04-17T05:00:46.976Z,18.63
2023-04-17T05:03:14.484Z,19.05
2023-04-17T05:05:43.391Z,18.63
2023-04-17T05:08:10.683Z,19.13
2023-04-17T05:10:38.088Z,18.42
2023-04-17T05:13:05.392Z,19.00
2023-04-17T05:15:32.712Z,20.67
2023-04-17T05:18:00.000Z,20.08
2023-04-17T05:20:27.374Z,20.63
2023-04-17T05:22:54.759Z,19.75
2023-04-17T05:25:22.633Z,20.77
2023-04-17T05:27:50.109Z,20.20
2023-04-17T05:30:17.472Z,20.75
2023-04-17T05:32:44.818Z,20.30
2023-04-17T05:35:12.271Z,18.73
2023-04-17T05:37:39.602Z,20.05
2023-04-17T05:40:10.838Z,19.35
2023-04-17T05:42:38.112Z,21.60
2023-04-17T05:45:05.788Z,21.02
2023-04-17T05:47:33.173Z,20.15
2023-04-17T05:50:00.725Z,20.33
2023-04-17T05:52:27.997Z,22.15
2023-04-17T05:54:55.363Z,22.83
2023-04-17T05:57:22.709Z,21.58
2023-04-17T05:59:50.004Z,21.52
2023-04-17T06:02:17.510Z,23.25
2023-04-17T06:04:45.131Z,24.35
2023-04-17T06:07:12.625Z,23.73
2023-04-17T06:09:41.117Z,24.25
2023-04-17T06:12:14.873Z,21.88
2023-04-17T06:14:42.728Z,21.40
2023-04-17T06:17:10.324Z,23.38
2023-04-17T06:19:37.688Z,24.13
2023-04-17T06:22:05.488Z,24.75
2023-04-17T06:24:32.774Z,26.13
2023-04-17T06:27:00.134Z,24.65
2023-04-17T06:29:27.377Z,23.27
2023-04-17T06:31:54.961Z,24.35
2023-04-17T06:34:22.429Z,26.70
2023-04-17T06:36:49.859Z,26.05
2023-04-17T06:39:17.516Z,25.83
2023-04-17T06:41:44.956Z,27.42
2023-04-17T06:44:12.344Z,26.30
2023-04-17T06:46:39.683Z,24.67
2023-04-17T06:49:06.963Z,25.30
2023-04-17T06:51:34.272Z,23.48
2023-04-17T06:54:01.601Z,23.02
2023-04-17T06:56:28.917Z,23.15
2023-04-17T06:58:57.934Z,21.58
2023-04-17T07:01:25.532Z,22.08
2023-04-17T07:03:53.364Z,19.42
2023-04-17T07:06:20.955Z,17.60
2023-04-17T07:08:48.218Z,16.75
2023-04-17T07:11:15.729Z,18.00
2023-04-17T07:13:43.229Z,16.77
2023-04-17T07:16:10.618Z,17.08
2023-04-17T07:18:38.149Z,16.77
2023-04-17T07:21:05.903Z,15.85
2023-04-17T07:23:33.168Z,15.13
2023-04-17T07:26:00.528Z,15.05
2023-04-17T07:28:27.871Z,14.68
2023-04-17T07:30:58.117Z,11.45
2023-04-17T07:33:25.626Z,11.40
2023-04-17T07:35:53.948Z,10.38
2023-04-17T07:38:21.231Z,10.07
2023-04-17T07:40:48.487Z,9.60
2023-04-17T07:43:16.848Z,9.60
2023-04-17T07:45:44.138Z,8.32
2023-04-17T07:48:11.526Z,8.68
2023-04-17T07:50:38.971Z,8.55
2023-04-17T07:53:07.730Z,7.63
2023-04-17T07:55:35.046Z,7.35
2023-04-17T07:58:03.958Z,8.82
2023-04-17T08:00:31.763Z,8.45
2023-04-17T08:02:59.490Z,10.02
2023-04-17T08:05:26.939Z,10.05
2023-04-17T08:07:54.370Z,10.55
2023-04-17T08:10:21.734Z,11.13
2023-04-17T08:12:49.112Z,10.27
2023-04-17T08:15:16.428Z,11.48
2023-04-17T08:17:43.741Z,10.57
2023-04-17T08:20:11.444Z,10.88
2023-04-17T08:22:43.008Z,9.23
2023-04-17T08:25:11.764Z,8.20
2023-04-17T08:27:41.141Z,9.18
2023-04-17T08:30:13.042Z,8.68
2023-04-17T08:32:47.034Z,6.60
2023-04-17T08:35:15.899Z,7.80
2023-04-17T08:37:46.924Z,6.57
2023-04-17T08:40:15.078Z,5.75
2023-04-17T08:42:43.409Z,4.80
2023-04-17T08:45:14.452Z,5.35
2023-04-17T08:47:43.268Z,5.65
2023-04-17T08:50:16.444Z,5.10
2023-04-17T08:52:46.570Z,4.97
2023-04-17T08:55:16.868Z,4.78
2023-04-17T08:57:59.014Z,5.60
2023-04-17T09:00:31.780Z,5.20
2023-04-17T09:03:00.759Z,5.20
2023-04-17T09:05:40.163Z,6.00
2023-04-17T09:08:24.323Z,5.70
2023-04-17T09:10:54.037Z,7.60
2023-04-17T09:13:25.256Z,6.18
2023-04-17T09:16:10.422Z,6.32
2023-04-17T09:18:38.860Z,5.97
2023-04-17T09:21:07.438Z,5.40
2023-04-17T09:23:51.344Z,6.65
2023-04-17T09:26:21.138Z,5.95
2023-04-17T09:29:12.383Z,5.90
2023-04-17T09:31:43.181Z,5.72
2023-04-17T09:34:12.370Z,5.53
2023-04-17T09:36:43.241Z,5.80
2023-04-17T09:39:26.274Z,5.65
2023-04-17T09:42:05.644Z,6.15
2023-04-17T09:44:36.915Z,6.18
2023-04-17T09:47:05.316Z,6.80
2023-04-17T09:49:52.970Z,6.68
2023-04-17T09:52:23.498Z,6.63
2023-04-17T09:54:53.893Z,6.60
2023-04-17T09:57:21.655Z,6.55
2023-04-17T09:59:49.094Z,6.63
2023-04-17T10:02:21.671Z,6.90
2023-04-17T10:04:49.481Z,6.53
2023-04-17T10:07:18.023Z,7.15
2023-04-17T10:09:46.035Z,6.95
2023-04-17T10:12:16.206Z,8.70
2023-04-17T10:14:47.029Z,7.93
2023-04-17T10:17:34.681Z,7.93
2023-04-17T10:20:20.347Z,6.85
2023-04-17T10:22:54.601Z,7.88
2023-04-17T10:25:27.117Z,6.78
2023-04-17T10:28:02.265Z,7.95
2023-04-17T10:30:54.624Z,7.05
2023-04-17T10:33:27.515Z,6.50
2023-04-17T10:35:55.062Z,7.03
2023-04-17T10:38:36.486Z,6.38
2023-04-17T10:41:09.104Z,6.88
2023-04-17T10:43:40.720Z,6.60
2023-04-17T10:46:12.938Z,7.22
2023-04-17T10:48:46.680Z,6.63
2023-04-17T10:51:27.393Z,7.38
2023-04-17T10:53:58.697Z,6.82
2023-04-17T10:56:48.795Z,7.50
2023-04-17T10:59:19.497Z,7.78
2023-04-17T11:01:50.204Z,7.32
2023-04-17T11:04:31.928Z,7.40
2023-04-17T11:06:59.479Z,7.88
2023-04-17T11:09:28.550Z,7.82
2023-04-17T11:11:59.651Z,7.65
2023-04-17T11:14:27.016Z,7.75
2023-04-17T11:16:55.658Z,7.93
2023-04-17T11:19:24.957Z,7.82
2023-04-17T11:21:54.858Z,8.10
2023-04-17T11:24:29.888Z,7.93
2023-04-17T11:27:03.806Z,7.55
2023-04-17T11:29:31.417Z,7.00
2023-04-17T11:32:00.946Z,6.88
2023-04-17T11:34:28.277Z,7.25
2023-04-17T11:37:01.084Z,7.22
2023-04-17T11:39:30.600Z,7.55
2023-04-17T11:41:58.642Z,7.82
2023-04-17T11:44:26.281Z,7.40
2023-04-17T11:46:55.060Z,6.80
2023-04-17T11:49:29.879Z,8.10
2023-04-17T11:52:01.349Z,8.15
2023-04-17T11:54:30.739Z,8.18
2023-04-17T11:57:02.812Z,7.70
2023-04-17T11:59:38.222Z,8.18
2023-04-17T12:02:07.606Z,7.70
2023-04-17T12:04:36.653Z,8.07
2023-04-17T12:07:06.174Z,7.68
2023-04-17T12:09:34.790Z,6.22
2023-04-17T12:12:05.524Z,6.93
2023-04-17T12:14:33.206Z,6.03
2023-04-17T12:17:00.579Z,8.02
2023-04-17T12:19:29.552Z,7.25
2023-04-17T12:21:57.507Z,6.90
2023-04-17T12:24:25.342Z,6.45
2023-04-17T12:26:53.466Z,6.72
2023-04-17T12:29:29.419Z,6.47
2023-04-17T12:32:04.281Z,6.43
2023-04-17T12:34:31.864Z,6.80
2023-04-17T12:36:59.189Z,7.50
2023-04-17T12:39:26.492Z,7.32
2023-04-17T12:41:53.859Z,6.97
2023-04-17T12:44:21.193Z,7.43
2023-04-17T12:46:48.485Z,7.35
2023-04-17T12:49:16.168Z,6.93
2023-04-17T12:51:43.431Z,7.68
2023-04-17T12:54:11.110Z,6.68
2023-04-17T12:56:38.744Z,6.57
2023-04-17T12:59:06.260Z,6.85
2023-04-17T13:01:33.820Z,7.20
2023-04-17T13:04:01.390Z,6.65
2023-04-17T13:06:29.038Z,7.15
2023-04-17T13:08:56.586Z,7.35
2023-04-17T13:11:24.139Z,7.32
2023-04-17T13:13:51.453Z,7.03
2023-04-17T13:16:18.828Z,6.55
2023-04-17T13:18:46.320Z,7.38
2023-04-17T13:21:13.811Z,5.38
2023-04-17T13:23:41.269Z,7.22
2023-04-17T13:26:08.547Z,7.38
2023-04-17T13:28:35.970Z,6.60
2023-04-17T13:31:03.381Z,6.63
2023-04-17T13:33:30.794Z,6.72
2023-04-17T13:35:58.299Z,6.38
2023-04-17T13:38:25.668Z,6.93
2023-04-17T13:40:52.986Z,6.68
2023-04-17T13:43:20.363Z,5.95
2023-04-17T13:45:49.719Z,7.57
2023-04-17T13:48:17.316Z,7.30
2023-04-17T13:50:44.819Z,7.30
2023-04-17T13:53:13.513Z,8.60
2023-04-17T13:55:40.967Z,7.88
2023-04-17T13:58:08.298Z,7.47
2023-04-17T14:00:35.638Z,8.40
2023-04-17T14:03:03.712Z,6.97
2023-04-17T14:05:31.911Z,8.90
2023-04-17T14:07:59.204Z,9.20
2023-04-17T14:10:26.577Z,7.80
2023-04-17T14:12:53.941Z,7.85
2023-04-17T14:15:21.322Z,8.55
2023-04-17T14:17:48.847Z,8.57
2023-04-17T14:20:18.005Z,9.52
2023-04-17T14:22:47.248Z,8.98
2023-04-17T14:25:15.140Z,9.68
2023-04-17T14:27:42.787Z,9.35
2023-04-17T14:30:10.426Z,9.80
2023-04-17T14:32:40.924Z,10.23
2023-04-17T14:35:08.574Z,8.68
2023-04-17T14:37:36.155Z,9.30
2023-04-17T14:40:04.846Z,9.75
2023-04-17T14:42:38.094Z,9.63
2023-04-17T14:45:14.869Z,9.15
2023-04-17T14:47:43.994Z,9.90
2023-04-17T14:50:11.612Z,9.13
2023-04-17T14:52:39.148Z,8.80
2023-04-17T14:55:06.869Z,8.40
2023-04-17T14:57:35.337Z,9.15
2023-04-17T15:00:03.181Z,9.38
2023-04-17T15:02:38.124Z,10.27
2023-04-17T15:05:07.193Z,9.55
2023-04-17T15:07:34.948Z,10.43
2023-04-17T15:10:02.587Z,10.95
2023-04-17T15:12:30.015Z,8.65
2023-04-17T15:14:57.402Z,10.10
2023-04-17T15:17:24.740Z,9.90
2023-04-17T15:19:52.059Z,8.73
2023-04-17T15:22:19.610Z,9.95
2023-04-17T15:24:46.900Z,8.88
2023-04-17T15:27:14.203Z,9.65
2023-04-17T15:29:41.872Z,9.60
2023-04-17T15:32:09.357Z,9.40
2023-04-17T15:34:36.838Z,9.88
2023-04-17T15:37:07.187Z,10.23
2023-04-17T15:39:39.563Z,9.90
2023-04-17T15:42:09.564Z,10.02
2023-04-17T15:44:37.796Z,9.32
2023-04-17T15:47:06.806Z,10.52
2023-04-17T15:49:34.474Z,10.43
2023-04-17T15:52:02.761Z,9.10
2023-04-17T15:54:31.708Z,9.98
2023-04-17T15:56:59.492Z,9.07
2023-04-17T15:59:27.075Z,9.73
2023-04-17T16:01:54.463Z,9.35
2023-04-17T16:04:22.125Z,10.40
2023-04-17T16:06:49.750Z,9.25
2023-04-17T16:09:24.357Z,9.60
2023-04-17T16:11:51.700Z,10.43
2023-04-17T16:14:19.301Z,9.93
2023-04-17T16:16:46.582Z,11.15
2023-04-17T16:19:14.300Z,9.60
2023-04-17T16:21:41.964Z,9.20
2023-04-17T16:24:09.360Z,9.45
2023-04-17T16:26:37.280Z,10.40
2023-04-17T16:29:04.615Z,10.80
2023-04-17T16:31:32.180Z,10.75
2023-04-17T16:33:59.808Z,9.65
2023-04-17T16:36:27.808Z,10.38
2023-04-17T16:38:55.140Z,10.40
2023-04-17T16:41:22.467Z,10.40
2023-04-17T16:43:49.771Z,10.68
2023-04-17T16:46:23.978Z,11.10
2023-04-17T16:48:59.232Z,11.23
2023-04-17T16:51:27.194Z,10.95
2023-04-17T16:53:54.524Z,10.82
2023-04-17T16:56:21.923Z,9.90
2023-04-17T16:58:49.251Z,9.70
2023-04-17T17:01:16.650Z,11.32
2023-04-17T17:03:45.189Z,11.23
2023-04-17T17:06:13.220Z,10.90
2023-04-17T17:08:43.307Z,10.52
2023-04-17T17:11:11.078Z,11.63
2023-04-17T17:13:38.641Z,11.50
2023-04-17T17:16:06.057Z,12.43
2023-04-17T17:18:33.422Z,11.48
2023-04-17T17:21:02.112Z,12.25
2023-04-17T17:23:29.564Z,12.27
2023-04-17T17:25:56.910Z,13.77
2023-04-17T17:28:24.341Z,12.00
2023-04-17T17:30:59.995Z,14.55
2023-04-17T17:33:27.762Z,14.48
2023-04-17T17:35:55.305Z,13.00
2023-04-17T17:38:23.060Z,14.27
2023-04-17T17:40:55.766Z,13.48
2023-04-17T17:43:23.170Z,12.52
2023-04-17T17:45:50.942Z,13.25
2023-04-17T17:48:20.450Z,12.30
2023-04-17T17:50:47.840Z,12.75
2023-04-17T17:53:17.571Z,12.60
2023-04-17T17:55:51.993Z,13.20
2023-04-17T17:58:21.145Z,15.07
2023-04-17T18:00:49.485Z,14.73
2023-04-17T18:03:18.670Z,14.35
2023-04-17T18:05:46.687Z,13.55
2023-04-17T18:08:14.713Z,14.40
2023-04-17T18:10:42.255Z,13.20
2023-04-17T18:13:09.535Z,14.20
2023-04-17T18:15:36.919Z,14.75
2023-04-17T18:18:04.611Z,14.02
2023-04-17T18:20:32.170Z,13.95
2023-04-17T18:22:59.647Z,13.85
2023-04-17T18:25:26.989Z,15.45
2023-04-17T18:27:54.318Z,15.88
2023-04-17T18:30:21.680Z,14.68
2023-04-17T18:32:49.090Z,15.65
2023-04-17T18:35:16.757Z,15.20
2023-04-17T18:37:45.785Z,15.55
2023-04-17T18:40:13.467Z,15.65
2023-04-17T18:42:41.018Z,16.58
2023-04-17T18:45:09.836Z,16.40
2023-04-17T18:47:37.297Z,16.08
2023-04-17T18:50:05.384Z,17.15
2023-04-17T18:52:38.855Z,16.92
2023-04-17T18:55:07.229Z,16.25
2023-04-17T18:57:34.741Z,17.83
2023-04-17T19:00:02.159Z,14.70
2023-04-17T19:02:29.730Z,16.05
2023-04-17T19:04:57.361Z,15.88
2023-04-17T19:07:24.923Z,17.38
2023-04-17T19:09:52.255Z,17.23
2023-04-17T19:12:19.678Z,18.33
2023-04-17T19:14:47.137Z,19.95
2023-04-17T19:17:16.097Z,18.42
2023-04-17T19:19:43.603Z,18.40
2023-04-17T19:22:10.955Z,15.95
2023-04-17T19:24:38.626Z,16.10
2023-04-17T19:27:07.016Z,17.05
2023-04-17T19:29:35.163Z,16.77
2023-04-17T19:32:02.914Z,18.13
2023-04-17T19:34:30.457Z,16.38
2023-04-17T19:36:57.857Z,17.75
2023-04-17T19:39:28.025Z,17.92
2023-04-17T19:41:55.631Z,16.02
2023-04-17T19:44:23.503Z,18.20
2023-04-17T19:46:51.114Z,17.63
2023-04-17T19:49:18.659Z,19.45
2023-04-17T19:51:46.183Z,18.85
2023-04-17T19:54:13.743Z,20.70
2023-04-17T19:56:41.283Z,18.40
2023-04-17T19:59:12.786Z,18.15
2023-04-17T20:01:41.493Z,19.50
2023-04-17T20:04:11.281Z,17.50
2023-04-17T20:06:39.967Z,19.13
2023-04-17T20:09:07.413Z,18.30
2023-04-17T20:11:35.028Z,18.48
2023-04-17T20:14:03.024Z,18.77
2023-04-17T20:16:31.308Z,19.45
2023-04-17T20:18:58.786Z,19.52
2023-04-17T20:21:26.999Z,19.33
2023-04-17T20:23:55.564Z,19.33
2023-04-17T20:26:23.173Z,20.25
2023-04-17T20:28:50.598Z,19.98
2023-04-17T20:31:17.974Z,21.67
2023-04-17T20:33:45.328Z,18.40
2023-04-17T20:36:13.323Z,20.05
2023-04-17T20:38:40.699Z,20.55
2023-04-17T20:41:08.085Z,21.48
2023-04-17T20:43:36.519Z,22.40
2023-04-17T20:46:06.098Z,22.65
2023-04-17T20:48:33.431Z,21.33
2023-04-17T20:51:06.038Z,21.77
2023-04-17T20:53:33.580Z,23.58
2023-04-17T20:56:01.008Z,21.60
2023-04-17T20:58:28.303Z,23.60
2023-04-17T21:01:01.066Z,24.05
2023-04-17T21:03:32.998Z,23.08
2023-04-17T21:06:01.241Z,24.02
2023-04-17T21:08:29.047Z,22.77
2023-04-17T21:10:56.389Z,24.20
2023-04-17T21:13:24.114Z,25.35
2023-04-17T21:15:51.494Z,24.63
2023-04-17T21:18:18.880Z,23.17
2023-04-17T21:20:46.342Z,24.08
2023-04-17T21:23:14.794Z,26.33
2023-04-17T21:25:42.246Z,24.50
2023-04-17T21:28:09.603Z,25.48
2023-04-17T21:30:37.403Z,25.10
2023-04-17T21:33:04.773Z,24.48
2023-04-17T21:35:32.223Z,25.20
2023-04-17T21:37:59.557Z,24.58
2023-04-17T21:40:30.982Z,24.67
2023-04-17T21:43:01.274Z,23.75
2023-04-17T21:45:28.649Z,22.63
2023-04-17T21:47:56.158Z,23.70
2023-04-17T21:50:23.647Z,25.55
2023-04-17T21:52:50.989Z,22.40
2023-04-17T21:55:18.268Z,24.73
2023-04-17T21:57:45.611Z,22.48
2023-04-17T22:00:14.738Z,24.42
2023-04-17T22:02:42.213Z,25.45
2023-04-17T22:05:10.804Z,22.90
2023-04-17T22:07:44.046Z,21.02
2023-04-17T22:10:21.451Z,22.55
2023-04-17T22:12:48.736Z,23.67
2023-04-17T22:15:16.152Z,22.30
2023-04-17T22:17:43.735Z,23.48
2023-04-17T22:20:11.537Z,22.90
2023-04-17T22:22:38.880Z,24.00
2023-04-17T22:25:06.496Z,23.30
2023-04-17T22:27:33.794Z,24.17
2023-04-17T22:30:01.174Z,24.23
2023-04-17T22:32:28.459Z,24.60
2023-04-17T22:34:56.022Z,22.27
2023-04-17T22:37:23.319Z,23.00
2023-04-17T22:39:50.612Z,23.33
2023-04-17T22:42:17.887Z,24.35
2023-04-17T22:44:45.273Z,27.45
2023-04-17T22:47:12.616Z,23.48
2023-04-17T22:49:40.878Z,25.02
2023-04-17T22:52:09.253Z,24.98
2023-04-17T22:54:36.653Z,25.20
2023-04-17T22:57:04.037Z,23.35
2023-04-17T22:59:31.463Z,23.95
2023-04-17T23:01:58.894Z,23.35
2023-04-17T23:04:26.334Z,24.58
2023-04-17T23:06:53.857Z,24.02
2023-04-17T23:09:21.335Z,25.85
2023-04-17T23:11:48.660Z,23.98
2023-04-17T23:14:16.037Z,22.77
2023-04-17T23:16:43.567Z,23.35
2023-04-17T23:19:10.863Z,24.00
2023-04-17T23:21:38.146Z,25.25
2023-04-17T23:24:06.285Z,23.92
2023-04-17T23:26:33.742Z,25.02
2023-04-17T23:29:01.080Z,25.70
2023-04-17T23:31:28.476Z,23.73
2023-04-17T23:33:55.847Z,23.90
2023-04-17T23:36:23.185Z,23.63
2023-04-17T23:38:50.843Z,24.17
2023-04-17T23:41:18.153Z,21.77
2023-04-17T23:43:45.469Z,23.63
2023-04-17T23:46:13.049Z,24.25
2023-04-17T23:48:40.527Z,23.23
2023-04-17T23:51:08.941Z,22.45
2023-04-17T23:53:36.225Z,25.30
2023-04-17T23:56:04.241Z,24.73
2023-04-17T23:58:31.568Z,24.00
